createdAt,value
2023-05-18T03:17:54.954Z,7.00
2023-05-18T03:20:28.546Z,7.05
2023-05-18T03:23:01.252Z,7.11
2023-05-18T03:25:34.162Z,7.18
2023-05-18T03:28:06.560Z,7.09
2023-05-18T03:30:39.392Z,7.05
2023-05-18T03:33:15.252Z,7.05
2023-05-18T03:35:48.733Z,6.90
2023-05-18T03:38:21.373Z,6.92
2023-05-18T03:40:56.620Z,7.08
2023-05-18T03:43:30.238Z,7.08
2023-05-18T03:46:02.990Z,7.03
2023-05-18T03:48:38.408Z,7.13
2023-05-18T03:51:11.286Z,7.35
2023-05-18T03:53:43.549Z,7.13
2023-05-18T03:56:16.474Z,7.31
2023-05-18T03:58:49.065Z,6.94
2023-05-18T04:01:24.241Z,7.02
2023-05-18T04:04:00.006Z,6.94
2023-05-18T04:06:42.526Z,6.94
2023-05-18T04:09:17.829Z,6.95
2023-05-18T04:11:50.919Z,7.05
2023-05-18T04:14:25.220Z,6.84
2023-05-18T04:17:05.229Z,6.92
2023-05-18T04:19:46.754Z,6.98
2023-05-18T04:22:20.638Z,7.02
2023-05-18T04:24:55.623Z,6.94
2023-05-18T04:27:30.266Z,7.04
2023-05-18T04:30:04.064Z,7.14
2023-05-18T04:32:37.329Z,7.05
2023-05-18T04:35:14.211Z,7.14
2023-05-18T04:37:47.562Z,7.21
2023-05-18T04:40:20.532Z,7.30
2023-05-18T04:42:53.532Z,7.49
2023-05-18T04:45:26.609Z,7.39
2023-05-18T04:47:59.587Z,7.43
2023-05-18T04:50:36.678Z,7.38
2023-05-18T04:53:12.690Z,7.54
2023-05-18T04:55:46.895Z,7.50
2023-05-18T04:58:20.417Z,7.58
2023-05-18T05:00:53.296Z,7.66
2023-05-18T05:03:26.801Z,7.85
2023-05-18T05:06:02.611Z,7.96
2023-05-18T05:08:36.931Z,7.93
2023-05-18T05:11:09.652Z,7.96
2023-05-18T05:13:42.773Z,7.98
2023-05-18T05:16:15.557Z,7.99
2023-05-18T05:18:48.963Z,8.24
2023-05-18T05:21:24.359Z,8.74
2023-05-18T05:23:57.486Z,9.50
2023-05-18T05:26:30.243Z,9.87
2023-05-18T05:29:06.949Z,10.41
2023-05-18T05:31:39.479Z,10.87
2023-05-18T05:34:13.916Z,11.46
2023-05-18T05:36:49.193Z,12.02
2023-05-18T05:39:22.396Z,12.73
2023-05-18T05:41:55.419Z,12.69
2023-05-18T05:44:28.718Z,13.56
2023-05-18T05:47:02.434Z,13.75
2023-05-18T05:49:35.456Z,13.24
2023-05-18T05:52:11.599Z,12.86
2023-05-18T05:54:44.926Z,12.84
2023-05-18T05:57:18.950Z,13.09
2023-05-18T05:59:53.687Z,13.06
2023-05-18T06:02:26.247Z,13.96
2023-05-18T06:05:21.554Z,13.96
2023-05-18T06:07:56.704Z,13.53
2023-05-18T06:10:29.328Z,14.70
2023-05-18T06:13:01.551Z,15.80
2023-05-18T06:15:34.207Z,15.02
2023-05-18T06:18:06.458Z,14.77
2023-05-18T06:20:38.879Z,14.73
2023-05-18T06:23:13.364Z,15.27
2023-05-18T06:25:46.181Z,14.87
2023-05-18T06:28:18.780Z,14.96
2023-05-18T06:30:52.449Z,15.64
2023-05-18T06:33:24.961Z,15.16
2023-05-18T06:35:58.166Z,15.38
2023-05-18T06:38:34.278Z,14.33
2023-05-18T06:41:07.203Z,14.22
2023-05-18T06:43:39.947Z,14.68
2023-05-18T06:46:12.429Z,15.46
2023-05-18T06:48:46.112Z,15.67
2023-05-18T06:51:19.154Z,14.69
2023-05-18T06:53:55.074Z,15.69
2023-05-18T06:56:29.154Z,15.81
2023-05-18T06:59:02.468Z,16.27
2023-05-18T07:01:35.921Z,15.55
2023-05-18T07:04:10.256Z,16.19
2023-05-18T07:06:44.556Z,15.29
2023-05-18T07:09:20.974Z,14.96
2023-05-18T07:11:54.784Z,15.04
2023-05-18T07:14:26.811Z,16.60
2023-05-18T07:17:00.394Z,16.28
2023-05-18T07:19:33.069Z,15.53
2023-05-18T07:22:10.399Z,17.15
2023-05-18T07:24:47.762Z,17.22
2023-05-18T07:27:21.327Z,16.86
2023-05-18T07:29:54.190Z,16.33
2023-05-18T07:32:36.457Z,16.45
2023-05-18T07:35:14.579Z,17.26
2023-05-18T07:40:50.162Z,16.61
2023-05-18T07:43:23.616Z,16.23
2023-05-18T07:45:56.159Z,15.57
2023-05-18T07:48:29.139Z,15.93
2023-05-18T07:51:01.446Z,15.20
2023-05-18T07:53:36.136Z,15.99
2023-05-18T07:56:26.296Z,15.59
2023-05-18T07:59:15.139Z,15.60
2023-05-18T08:02:06.940Z,14.96
2023-05-18T08:04:40.679Z,14.61
2023-05-18T08:07:32.471Z,14.21
2023-05-18T08:10:14.553Z,14.33
2023-05-18T08:13:22.437Z,13.52
2023-05-18T08:16:10.556Z,14.16
2023-05-18T08:18:50.130Z,14.12
2023-05-18T08:21:25.202Z,15.63
2023-05-18T08:23:58.131Z,15.41
2023-05-18T08:26:31.430Z,15.47
2023-05-18T08:29:11.159Z,15.26
2023-05-18T08:31:47.670Z,14.89
2023-05-18T08:34:24.806Z,15.32
2023-05-18T08:36:57.416Z,15.82
2023-05-18T08:39:32.197Z,15.04
2023-05-18T08:42:07.060Z,14.28
2023-05-18T08:45:04.466Z,14.19
2023-05-18T08:47:41.741Z,14.01
2023-05-18T08:50:21.124Z,13.42
2023-05-18T08:52:59.382Z,13.75
2023-05-18T08:55:35.460Z,14.10
2023-05-18T08:58:13.133Z,14.14
2023-05-18T09:00:56.952Z,13.90
2023-05-18T09:03:29.920Z,13.52
2023-05-18T09:06:06.975Z,13.29
2023-05-18T09:08:40.848Z,13.78
2023-05-18T09:11:16.223Z,14.30
2023-05-18T09:13:49.072Z,14.73
2023-05-18T09:16:23.778Z,15.11
2023-05-18T09:18:57.801Z,16.73
2023-05-18T09:21:42.203Z,17.44
2023-05-18T09:24:17.240Z,17.43
2023-05-18T09:26:49.675Z,17.97
2023-05-18T09:29:24.672Z,17.74
2023-05-18T09:32:08.793Z,19.06
2023-05-18T09:34:51.717Z,18.71
2023-05-18T09:37:30.431Z,18.59
2023-05-18T09:40:10.484Z,17.78
2023-05-18T09:42:50.286Z,18.42
2023-05-18T09:45:27.308Z,17.73
2023-05-18T09:48:06.411Z,16.32
2023-05-18T09:50:45.984Z,16.47
2023-05-18T09:53:22.017Z,16.45
2023-05-18T09:55:55.031Z,16.83
2023-05-18T09:58:28.000Z,16.73
2023-05-18T10:01:04.819Z,16.00
2023-05-18T10:03:41.889Z,16.17
2023-05-18T10:06:15.678Z,16.22
2023-05-18T10:08:48.425Z,17.20
2023-05-18T10:11:23.769Z,17.17
2023-05-18T10:14:00.173Z,17.52
2023-05-18T10:16:33.638Z,17.51
2023-05-18T10:19:12.398Z,18.31
2023-05-18T10:21:46.084Z,18.73
2023-05-18T10:24:22.973Z,17.74
2023-05-18T10:27:05.059Z,17.32
2023-05-18T10:29:41.775Z,18.63
2023-05-18T10:32:17.972Z,19.99
2023-05-18T10:35:17.214Z,19.69
2023-05-18T10:37:54.505Z,20.43
2023-05-18T10:40:55.881Z,19.81
2023-05-18T10:46:28.491Z,19.62
2023-05-18T10:49:17.796Z,19.65
2023-05-18T10:51:56.417Z,20.17
2023-05-18T10:54:32.400Z,18.94
2023-05-18T10:57:10.916Z,18.48
2023-05-18T10:59:48.202Z,19.09
2023-05-18T11:02:23.181Z,18.95
2023-05-18T11:05:07.968Z,18.47
2023-05-18T11:07:59.574Z,16.92
2023-05-18T11:10:49.180Z,16.15
2023-05-18T11:13:33.020Z,16.63
2023-05-18T11:16:09.219Z,15.82
2023-05-18T11:18:47.116Z,15.14
2023-05-18T11:21:24.402Z,14.78
2023-05-18T11:24:22.222Z,15.17
2023-05-18T11:26:59.040Z,16.83
2023-05-18T11:29:36.657Z,17.69
2023-05-18T11:32:30.602Z,18.57
2023-05-18T11:35:06.265Z,18.23
2023-05-18T11:37:55.321Z,17.58
2023-05-18T11:40:54.242Z,18.26
2023-05-18T11:43:34.741Z,18.04
2023-05-18T11:46:07.075Z,17.47
2023-05-18T11:48:48.956Z,17.00
2023-05-18T11:51:59.085Z,16.09
2023-05-18T11:54:33.561Z,15.68
2023-05-18T11:57:10.995Z,15.60
2023-05-18T11:59:45.580Z,15.90
2023-05-18T12:02:25.690Z,15.79
2023-05-18T12:05:03.169Z,16.15
2023-05-18T12:07:35.931Z,16.02
2023-05-18T12:10:12.596Z,16.42
2023-05-18T12:12:51.703Z,16.89
2023-05-18T12:15:31.009Z,16.89
2023-05-18T12:18:03.350Z,17.18
2023-05-18T12:20:47.021Z,17.47
2023-05-18T12:23:19.308Z,17.49
2023-05-18T12:26:13.911Z,17.54
2023-05-18T12:28:49.371Z,17.41
2023-05-18T12:31:22.066Z,17.44
2023-05-18T12:33:56.915Z,17.28
2023-05-18T12:36:31.579Z,16.95
2023-05-18T12:39:15.576Z,17.21
2023-05-18T12:41:51.121Z,16.99
2023-05-18T12:44:27.852Z,17.02
2023-05-18T12:47:00.668Z,16.72
2023-05-18T12:49:32.631Z,16.80
2023-05-18T12:52:12.994Z,16.84
2023-05-18T12:54:56.024Z,16.29
2023-05-18T12:57:34.196Z,16.77
2023-05-18T13:00:13.159Z,17.13
2023-05-18T13:02:50.874Z,17.16
2023-05-18T13:05:27.879Z,16.98
2023-05-18T13:08:00.291Z,16.80
2023-05-18T13:10:34.498Z,16.82
2023-05-18T13:13:15.972Z,16.94
2023-05-18T13:15:54.733Z,17.05
2023-05-18T13:18:28.922Z,16.57
2023-05-18T13:21:01.513Z,16.98
2023-05-18T13:23:34.376Z,17.10
2023-05-18T13:26:08.592Z,17.18
2023-05-18T13:28:43.732Z,16.93
2023-05-18T13:31:18.402Z,16.97
2023-05-18T13:33:52.909Z,17.07
2023-05-18T13:36:24.872Z,17.06
2023-05-18T13:38:57.391Z,17.05
2023-05-18T13:41:29.366Z,16.63
2023-05-18T13:44:04.515Z,16.15
2023-05-18T13:46:39.371Z,15.95
2023-05-18T13:49:14.016Z,16.33
2023-05-18T13:51:45.936Z,16.59
2023-05-18T13:54:18.246Z,16.77
2023-05-18T13:56:50.356Z,16.74
2023-05-18T13:59:23.021Z,16.98
2023-05-18T14:01:58.735Z,16.96
2023-05-18T14:04:33.401Z,16.53
2023-05-18T14:07:07.237Z,16.62
2023-05-18T14:09:39.756Z,16.51
2023-05-18T14:12:13.525Z,16.48
2023-05-18T14:14:46.514Z,16.73
2023-05-18T14:17:21.556Z,16.69
2023-05-18T14:19:54.392Z,16.52
2023-05-18T14:22:26.560Z,16.61
2023-05-18T14:24:59.532Z,16.64
2023-05-18T14:27:33.395Z,16.28
2023-05-18T14:30:06.640Z,16.60
2023-05-18T14:32:41.390Z,16.73
2023-05-18T14:35:16.159Z,16.63
2023-05-18T14:37:47.979Z,16.75
2023-05-18T14:40:20.431Z,17.00
2023-05-18T14:42:53.870Z,16.98
2023-05-18T14:45:26.620Z,16.98
2023-05-18T14:48:01.811Z,17.12
2023-05-18T14:50:38.365Z,17.23
2023-05-18T14:53:10.940Z,17.01
2023-05-18T14:55:43.353Z,17.11
2023-05-18T14:58:16.282Z,17.32
2023-05-18T15:00:50.416Z,17.32
2023-05-18T15:03:28.292Z,17.18
2023-05-18T15:06:01.270Z,17.08
2023-05-18T15:08:36.095Z,17.46
2023-05-18T15:11:09.573Z,17.61
2023-05-18T15:13:57.536Z,17.52
2023-05-18T15:16:30.415Z,17.51
2023-05-18T15:19:05.607Z,17.47
2023-05-18T15:21:39.339Z,17.42
2023-05-18T15:24:11.450Z,17.51
2023-05-18T15:26:44.755Z,17.34
2023-05-18T15:29:19.591Z,17.34
2023-05-18T15:31:54.520Z,17.59
2023-05-18T15:34:33.711Z,17.54
2023-05-18T15:37:13.082Z,17.48
2023-05-18T15:39:48.053Z,17.38
2023-05-18T15:42:21.732Z,17.27
2023-05-18T15:44:53.594Z,17.47
2023-05-18T15:47:34.560Z,17.51
2023-05-18T15:50:13.656Z,17.58
2023-05-18T15:52:46.371Z,17.43
2023-05-18T15:55:18.314Z,17.06
2023-05-18T15:57:51.960Z,16.99
2023-05-18T16:00:24.775Z,16.85
2023-05-18T16:02:57.818Z,16.58
2023-05-18T16:05:32.618Z,16.60
2023-05-18T16:08:10.136Z,16.37
2023-05-18T16:10:43.760Z,16.62
2023-05-18T16:13:16.492Z,16.63
2023-05-18T16:15:48.279Z,16.80
2023-05-18T16:18:28.101Z,16.73
2023-05-18T16:21:03.235Z,16.69
2023-05-18T16:23:36.459Z,16.71
2023-05-18T16:26:09.603Z,16.73
2023-05-18T16:28:57.058Z,16.77
2023-05-18T16:31:29.788Z,16.73
2023-05-18T16:34:17.790Z,16.52
2023-05-18T16:36:55.354Z,16.50
2023-05-18T16:39:31.672Z,16.48
2023-05-18T16:42:19.015Z,16.41
2023-05-18T16:45:01.553Z,16.37
2023-05-18T16:47:49.460Z,16.42
2023-05-18T16:50:22.372Z,16.44
2023-05-18T16:52:58.140Z,16.36
2023-05-18T16:55:30.676Z,16.35
2023-05-18T16:58:08.697Z,16.38
2023-05-18T17:00:41.379Z,16.39
2023-05-18T17:03:13.742Z,16.38
2023-05-18T17:05:46.518Z,16.26
2023-05-18T17:08:20.975Z,16.12
2023-05-18T17:10:53.333Z,16.13
2023-05-18T17:13:35.053Z,16.02
2023-05-18T17:16:08.013Z,15.83
2023-05-18T17:18:51.926Z,15.85
2023-05-18T17:21:25.209Z,15.73
2023-05-18T17:23:59.670Z,15.72
2023-05-18T17:26:38.370Z,15.71
2023-05-18T17:29:18.524Z,15.73
2023-05-18T17:31:58.729Z,15.56
2023-05-18T17:34:45.831Z,15.51
2023-05-18T17:37:27.012Z,15.55
2023-05-18T17:40:05.395Z,15.52
2023-05-18T17:42:42.949Z,15.55
2023-05-18T17:45:18.970Z,15.50
2023-05-18T17:47:55.269Z,15.50
2023-05-18T17:50:30.648Z,15.49
2023-05-18T17:53:08.410Z,15.50
2023-05-18T17:55:55.730Z,15.56
2023-05-18T17:58:33.863Z,15.60
2023-05-18T18:01:08.358Z,15.45
2023-05-18T18:04:03.319Z,15.47
2023-05-18T18:06:40.492Z,15.42
2023-05-18T18:09:20.245Z,15.38
2023-05-18T18:12:42.636Z,15.44
2023-05-18T18:16:03.685Z,15.31
2023-05-18T18:18:45.755Z,15.30
2023-05-18T18:21:21.087Z,15.17
2023-05-18T18:24:00.000Z,15.14
2023-05-18T18:26:58.381Z,14.88
2023-05-18T18:29:59.614Z,15.02
2023-05-18T18:32:57.545Z,15.05
2023-05-18T18:35:34.197Z,15.07
2023-05-18T18:38:10.174Z,15.03
2023-05-18T18:42:08.557Z,14.87
2023-05-18T18:46:40.469Z,14.81
2023-05-18T18:56:02.978Z,14.77
2023-05-18T19:03:05.060Z,14.63
2023-05-18T19:06:52.835Z,14.59
2023-05-18T19:17:23.510Z,14.39
2023-05-18T19:20:55.921Z,14.36
2023-05-18T19:22:38.831Z,14.54
2023-05-18T19:23:31.816Z,14.28
2023-05-18T19:26:04.796Z,14.14
2023-05-18T19:28:38.123Z,14.17
2023-05-18T19:31:11.383Z,14.16
2023-05-18T19:33:47.157Z,14.05
2023-05-18T19:36:34.676Z,13.97
2023-05-18T19:39:10.479Z,13.96
2023-05-18T19:41:51.026Z,13.91
2023-05-18T19:45:23.371Z,13.85
2023-05-18T19:48:06.691Z,13.71
2023-05-18T19:50:40.636Z,13.67
2023-05-18T19:53:13.760Z,13.64
2023-05-18T19:55:49.752Z,13.58
2023-05-18T19:58:52.711Z,13.47
2023-05-18T20:01:28.323Z,13.39
2023-05-18T20:04:04.879Z,13.28
2023-05-18T20:06:40.629Z,13.13
2023-05-18T20:09:17.355Z,13.10
2023-05-18T20:12:06.833Z,12.96
2023-05-18T20:14:57.760Z,12.84
2023-05-18T20:18:13.632Z,12.94
2023-05-18T20:20:50.506Z,12.97
2023-05-18T20:23:23.830Z,12.80
2023-05-18T20:25:56.392Z,12.81
2023-05-18T20:28:34.234Z,12.76
2023-05-18T20:31:06.889Z,12.50
2023-05-18T20:33:39.967Z,12.55
2023-05-18T20:36:12.371Z,12.51
2023-05-18T20:38:45.215Z,12.45
2023-05-18T20:41:19.269Z,12.50
2023-05-18T20:43:54.502Z,12.37
2023-05-18T20:46:28.281Z,12.35
2023-05-18T20:49:02.390Z,12.26
2023-05-18T20:51:36.315Z,12.16
2023-05-18T20:54:08.785Z,12.17
2023-05-18T20:56:41.195Z,12.03
2023-05-18T20:59:16.639Z,12.00
2023-05-18T21:01:51.465Z,11.93
2023-05-18T21:04:24.313Z,11.97
2023-05-18T21:06:56.441Z,12.02
2023-05-18T21:09:31.177Z,11.98
2023-05-18T21:12:03.409Z,11.94
2023-05-18T21:14:38.561Z,11.76
2023-05-18T21:17:11.078Z,11.78
2023-05-18T21:19:44.199Z,11.72
2023-05-18T21:22:16.400Z,11.72
2023-05-18T21:24:49.172Z,11.60
2023-05-18T21:27:30.522Z,11.58
2023-05-18T21:30:06.712Z,11.48
2023-05-18T21:32:48.683Z,11.48
2023-05-18T21:35:21.285Z,11.41
2023-05-18T21:37:53.889Z,11.27
2023-05-18T21:40:26.484Z,11.37
2023-05-18T21:42:58.577Z,11.37
2023-05-18T21:45:34.105Z,11.22
2023-05-18T21:48:07.014Z,11.24
2023-05-18T21:50:40.114Z,11.25
2023-05-18T21:53:14.479Z,11.23
2023-05-18T21:55:47.804Z,11.11
2023-05-18T21:58:22.923Z,11.01
2023-05-18T22:01:05.902Z,11.05
2023-05-18T22:03:38.619Z,10.96
2023-05-18T22:06:11.688Z,10.82
2023-05-18T22:08:43.968Z,10.91
2023-05-18T22:11:17.102Z,10.81
2023-05-18T22:13:57.043Z,10.81
2023-05-18T22:16:32.483Z,10.73
2023-05-18T22:22:16.533Z,10.70
2023-05-18T22:24:55.301Z,10.63
2023-05-18T22:27:27.962Z,10.63
2023-05-18T22:30:00.782Z,10.68
2023-05-18T22:32:36.187Z,10.50
2023-05-18T22:35:09.794Z,10.54
2023-05-18T22:37:47.275Z,10.54
2023-05-18T22:40:19.415Z,10.48
2023-05-18T22:42:51.899Z,10.48
2023-05-18T22:45:24.325Z,10.45
2023-05-18T22:47:59.899Z,10.44
2023-05-18T22:50:32.542Z,10.44
2023-05-18T22:53:05.828Z,10.41
2023-05-18T22:55:38.477Z,10.46
2023-05-18T22:58:13.395Z,10.24
2023-05-18T23:00:46.559Z,10.29
2023-05-18T23:03:22.236Z,10.21
2023-05-18T23:05:55.655Z,10.24
2023-05-18T23:08:28.352Z,10.24
2023-05-18T23:11:02.200Z,10.11
2023-05-18T23:13:37.852Z,10.14
2023-05-18T23:16:10.883Z,10.17
2023-05-18T23:18:50.992Z,10.15
2023-05-18T23:21:24.472Z,10.07
2023-05-18T23:23:57.211Z,9.92
2023-05-18T23:26:29.157Z,10.01
2023-05-18T23:29:01.901Z,9.90
2023-05-18T23:31:43.145Z,9.86
2023-05-18T23:34:19.198Z,9.90
2023-05-18T23:36:57.962Z,9.92
2023-05-18T23:39:30.718Z,9.89
2023-05-18T23:42:04.338Z,9.68
2023-05-18T23:44:37.814Z,9.71
2023-05-18T23:47:27.541Z,9.74
2023-05-18T23:50:22.348Z,9.63
2023-05-18T23:52:56.785Z,9.63
2023-05-18T23:55:31.240Z,9.63
2023-05-18T23:58:04.807Z,9.57
